Time;durP1;ratioP1;P1;durP2;ratioP2;P2;SDS_P1;SDS_P2;PMS_P1;PMS_P2;Temp;Humidity;BMP_temperature;BMP_pressure;BME280_temperature;BME280_humidity;BME280_pressure;Samples;Min_cycle;Max_cycle;Signal;HPM_P1;HPM_P2
2023/11/27 00:02:25;;;;;;;16.80;5.50;;;;;;;-1.43;87.44;100164.51;111098;1208;98939;-70
2023/11/27 00:04:50;;;;;;;12.20;5.30;;;;;;;-1.41;87.85;100164.50;111095;1206;138635;-70
2023/11/27 00:07:16;;;;;;;21.60;5.80;;;;;;;-1.41;87.58;100169.76;111133;1206;112269;-70
2023/11/27 00:09:41;;;;;;;16.50;5.40;;;;;;;-1.42;87.57;100163.98;111297;1206;98977;-70
2023/11/27 00:12:07;;;;;;;19.30;6.80;;;;;;;-1.41;87.65;100161.00;111099;1206;139016;-70
2023/11/27 00:14:33;;;;;;;13.70;6.10;;;;;;;-1.41;87.41;100163.27;111184;1206;99492;-71
2023/11/27 00:16:58;;;;;;;26.00;5.80;;;;;;;-1.41;87.57;100161.34;111114;1206;138725;-71
2023/11/27 00:19:24;;;;;;;17.00;5.40;;;;;;;-1.38;87.84;100164.14;111323;1208;100562;-71
2023/11/27 00:21:49;;;;;;;17.80;6.60;;;;;;;-1.38;87.53;100162.04;111280;1206;97794;-71
2023/11/27 00:24:15;;;;;;;17.10;6.00;;;;;;;-1.36;87.73;100162.91;111182;1208;138893;-71
2023/11/27 00:26:40;;;;;;;15.90;6.20;;;;;;;-1.35;87.76;100162.91;111331;1206;98086;-71
2023/11/27 00:29:06;;;;;;;16.10;6.10;;;;;;;-1.34;87.54;100166.59;111108;1205;138853;-71
2023/11/27 00:31:32;;;;;;;15.00;6.60;;;;;;;-1.35;87.63;100167.46;111238;1205;98925;-72
2023/11/27 00:33:58;;;;;;;18.20;6.80;;;;;;;-1.35;87.66;100166.77;111207;1208;112632;-71
2023/11/27 00:36:24;;;;;;;17.20;6.00;;;;;;;-1.35;87.82;100166.94;111102;1206;138938;-72
2023/11/27 00:38:51;;;;;;;20.30;6.90;;;;;;;-1.35;87.51;100166.23;111419;1208;99161;-71
2023/11/27 00:41:17;;;;;;;16.90;5.50;;;;;;;-1.32;87.76;100165.35;111152;1206;138799;-71
2023/11/27 00:43:43;;;;;;;15.10;5.60;;;;;;;-1.31;87.65;100161.84;111179;1211;112556;-72
2023/11/27 00:46:12;;;;;;;15.60;5.70;;;;;;;-1.29;87.58;100161.14;111053;1206;139492;-72
2023/11/27 00:48:37;;;;;;;14.50;5.50;;;;;;;-1.30;87.60;100160.63;111203;1205;107134;-72
2023/11/27 00:51:04;;;;;;;14.80;5.50;;;;;;;-1.29;87.78;100156.75;111215;1206;99283;-72
2023/11/27 00:53:29;;;;;;;10.80;4.90;;;;;;;-1.28;87.75;100153.95;111345;1205;138800;-72
2023/11/27 00:55:55;;;;;;;12.80;5.30;;;;;;;-1.24;87.90;100156.39;111304;1206;99028;-72
2023/11/27 00:58:20;;;;;;;15.60;5.20;;;;;;;-1.25;87.72;100154.63;111191;1205;141850;-72
2023/11/27 01:00:45;;;;;;;10.20;4.70;;;;;;;-1.25;87.87;100150.61;111346;1206;99495;-72
2023/11/27 01:03:11;;;;;;;12.90;5.00;;;;;;;-1.22;87.76;100149.55;111305;1206;98336;-72
2023/11/27 01:05:37;;;;;;;9.10;4.20;;;;;;;-1.20;88.04;100143.92;111271;1208;138057;-71
2023/11/27 01:08:02;;;;;;;13.10;5.00;;;;;;;-1.20;87.74;100147.25;111238;1206;98985;-72
2023/11/27 01:10:28;;;;;;;11.80;4.70;;;;;;;-1.22;87.71;100148.31;111180;1208;139361;-72
2023/11/27 01:12:53;;;;;;;14.20;5.20;;;;;;;-1.22;87.85;100149.54;111358;1206;98950;-71
2023/11/27 01:15:21;;;;;;;10.60;4.30;;;;;;;-1.20;87.94;100147.44;111229;1206;99034;-72
2023/11/27 01:17:46;;;;;;;12.80;4.90;;;;;;;-1.19;87.96;100147.09;111062;1208;139047;-72
2023/11/27 01:20:11;;;;;;;11.90;5.20;;;;;;;-1.18;87.93;100143.22;111301;1205;97792;-71
2023/11/27 01:22:37;;;;;;;11.10;4.90;;;;;;;-1.18;87.80;100139.54;111141;1206;139067;-70
2023/11/27 01:25:04;;;;;;;13.30;4.70;;;;;;;-1.17;87.89;100134.27;111301;1205;99032;-71
2023/11/27 01:27:31;;;;;;;11.10;4.60;;;;;;;-1.16;88.08;100135.49;111191;1205;99187;-70
2023/11/27 01:29:56;;;;;;;11.30;4.80;;;;;;;-1.15;87.97;100134.61;111210;1208;138762;-71
2023/11/27 01:32:24;;;;;;;12.90;4.90;;;;;;;-1.14;87.84;100134.79;111375;1205;98884;-71
2023/11/27 01:34:51;;;;;;;12.10;5.10;;;;;;;-1.12;87.93;100129.35;111133;1206;138783;-71
2023/11/27 01:37:18;;;;;;;13.10;5.30;;;;;;;-1.12;88.03;100123.03;111335;1208;98962;-70
2023/11/27 01:39:43;;;;;;;13.30;4.40;;;;;;;-1.11;87.98;100124.42;111352;1207;98953;-70
2023/11/27 01:42:09;;;;;;;11.60;4.70;;;;;;;-1.13;87.86;100122.52;111259;1208;138908;-70
2023/11/27 01:44:36;;;;;;;15.00;7.00;;;;;;;-1.14;88.05;100119.53;111444;1205;99040;-70
2023/11/27 01:47:02;;;;;;;11.90;4.30;;;;;;;-1.13;88.12;100123.56;111282;1209;139498;-73
2023/11/27 01:49:29;;;;;;;12.80;5.00;;;;;;;-1.13;88.11;100121.81;111281;1206;97794;-73
2023/11/27 01:51:56;;;;;;;8.30;3.60;;;;;;;-1.15;88.05;100121.12;111326;1208;99048;-70
2023/11/27 01:54:21;;;;;;;12.00;4.40;;;;;;;-1.14;88.03;100119.02;111305;1205;139213;-73
2023/11/27 01:56:50;;;;;;;12.20;4.10;;;;;;;-1.13;88.08;100117.42;111196;1209;99041;-71
2023/11/27 01:59:16;;;;;;;13.30;5.00;;;;;;;-1.13;88.05;100116.90;111207;1209;140591;-71
2023/11/27 02:01:42;;;;;;;8.50;4.70;;;;;;;-1.13;87.99;100112.70;111278;1205;98931;-72
2023/11/27 02:04:07;;;;;;;9.70;4.50;;;;;;;-1.12;88.18;100113.39;111173;1208;140971;-71
2023/11/27 02:06:33;;;;;;;10.40;4.30;;;;;;;-1.11;88.18;100111.81;111277;1205;98922;-71
2023/11/27 02:08:59;;;;;;;8.60;4.50;;;;;;;-1.09;88.05;100109.34;111189;1205;99172;-72
2023/11/27 02:11:25;;;;;;;12.10;6.20;;;;;;;-1.09;88.27;100107.23;111207;1206;139179;-71
2023/11/27 02:13:51;;;;;;;12.30;4.40;;;;;;;-1.08;88.33;100108.64;111244;1208;106851;-72
2023/11/27 02:16:16;;;;;;;13.80;4.20;;;;;;;-1.07;88.28;100109.34;111102;1205;140080;-72
2023/11/27 02:18:42;;;;;;;11.20;4.30;;;;;;;-1.05;88.38;100108.09;111388;1208;99070;-71
2023/11/27 02:21:10;;;;;;;12.40;4.60;;;;;;;-1.04;88.22;100108.97;111343;1208;99030;-68
2023/11/27 02:23:37;;;;;;;7.50;3.90;;;;;;;-1.02;88.39;100110.18;111126;1205;139196;-69
2023/11/27 02:26:06;;;;;;;12.80;4.10;;;;;;;-1.01;88.27;100109.30;111081;1208;100450;-68
2023/11/27 02:28:31;;;;;;;8.80;4.10;;;;;;;-1.00;88.33;100108.95;111108;1206;139405;-68
2023/11/27 02:30:57;;;;;;;15.80;5.00;;;;;;;-1.00;88.51;100106.66;111144;1208;99139;-69
2023/11/27 02:33:25;;;;;;;10.10;5.00;;;;;;;-0.97;88.43;100102.45;111212;1206;97496;-68
2023/11/27 02:35:51;;;;;;;12.40;4.00;;;;;;;-0.96;88.39;100098.41;111033;1206;139576;-68
2023/11/27 02:38:16;;;;;;;9.80;4.00;;;;;;;-0.94;88.45;100099.27;111184;1206;98847;-68
2023/11/27 02:40:41;;;;;;;12.00;4.00;;;;;;;-0.94;88.40;100095.94;111044;1206;138658;-68
2023/11/27 02:43:07;;;;;;;10.00;3.80;;;;;;;-0.94;88.45;100097.52;111050;1206;99473;-68
2023/11/27 02:45:33;;;;;;;10.80;4.30;;;;;;;-0.97;88.34;100092.45;111190;1208;99015;-68
2023/11/27 02:47:58;;;;;;;6.80;4.00;;;;;;;-0.96;88.30;100094.55;110988;1206;138794;-68
2023/11/27 02:50:24;;;;;;;9.90;4.40;;;;;;;-0.97;88.39;100089.13;111095;1206;100254;-68
2023/11/27 02:52:49;;;;;;;6.10;4.20;;;;;;;-0.98;88.55;100084.39;111028;1208;138974;-68
2023/11/27 02:55:16;;;;;;;18.00;4.40;;;;;;;-0.99;88.18;100083.87;111070;1204;97474;-70
2023/11/27 02:57:42;;;;;;;8.30;3.90;;;;;;;-1.01;88.53;100080.20;111031;1209;99044;-68
2023/11/27 03:00:12;;;;;;;9.00;4.10;;;;;;;-1.01;88.47;100081.08;110938;1205;138947;-68
2023/11/27 03:02:38;;;;;;;6.20;3.80;;;;;;;-1.04;88.29;100081.44;111159;1206;98929;-68
2023/11/27 03:05:07;;;;;;;11.10;4.30;;;;;;;-1.07;88.20;100079.88;111080;1206;138405;-68
2023/11/27 03:07:37;;;;;;;8.90;4.10;;;;;;;-1.10;88.24;100080.95;111176;1206;97778;-67
2023/11/27 03:10:03;;;;;;;15.50;4.80;;;;;;;-1.11;88.43;100080.77;111121;1206;111333;-68
2023/11/27 03:12:30;;;;;;;9.80;4.10;;;;;;;-1.13;88.39;100079.38;111027;1205;139286;-68
2023/11/27 03:14:55;;;;;;;8.20;4.00;;;;;;;-1.14;88.31;100081.85;111097;1208;98996;-69
2023/11/27 03:17:22;;;;;;;7.70;3.80;;;;;;;-1.16;88.43;100082.55;111134;1205;138512;-68
2023/11/27 03:19:47;;;;;;;11.50;5.10;;;;;;;-1.16;88.61;100080.80;111073;1208;113132;-68
2023/11/27 03:22:13;;;;;;;6.40;4.00;;;;;;;-1.15;88.72;100079.92;110963;1206;139181;-68
2023/11/27 03:24:39;;;;;;;8.30;4.00;;;;;;;-1.16;88.45;100077.48;111255;1208;98975;-68
2023/11/27 03:27:05;;;;;;;13.20;4.60;;;;;;;-1.16;88.46;100080.80;111116;1206;98938;-69
2023/11/27 03:29:31;;;;;;;9.60;4.20;;;;;;;-1.19;88.38;100083.45;111054;1205;138857;-68
2023/11/27 03:31:56;;;;;;;9.10;4.60;;;;;;;-1.18;88.27;100084.49;111160;1208;98944;-69
2023/11/27 03:34:22;;;;;;;10.00;3.90;;;;;;;-1.18;88.42;100079.94;111014;1205;138996;-68
2023/11/27 03:36:47;;;;;;;11.60;4.90;;;;;;;-1.18;88.63;100080.29;111089;1206;99048;-68
2023/11/27 03:39:12;;;;;;;10.90;4.10;;;;;;;-1.19;88.66;100080.11;111128;1206;99008;-68
2023/11/27 03:41:37;;;;;;;8.60;4.70;;;;;;;-1.15;88.56;100079.39;110949;1206;139813;-68
2023/11/27 03:44:03;;;;;;;12.40;4.80;;;;;;;-1.13;88.61;100080.62;111164;1206;99008;-69
2023/11/27 03:46:28;;;;;;;12.80;4.40;;;;;;;-1.12;88.66;100080.77;111025;1205;139124;-68
2023/11/27 03:48:53;;;;;;;12.90;4.10;;;;;;;-1.11;88.40;100073.42;111186;1208;99034;-68
2023/11/27 03:51:19;;;;;;;7.90;3.70;;;;;;;-1.11;88.64;100077.27;111177;1205;99012;-68
2023/11/27 03:53:44;;;;;;;11.80;4.60;;;;;;;-1.09;88.54;100078.31;111132;1208;139399;-68
2023/11/27 03:56:09;;;;;;;7.30;3.80;;;;;;;-1.06;88.64;100082.51;111258;1204;99042;-68
2023/11/27 03:58:35;;;;;;;9.30;3.70;;;;;;;-1.05;88.69;100077.59;111120;1206;138952;-68
2023/11/27 04:01:04;;;;;;;10.90;4.20;;;;;;;-1.05;88.66;100076.19;111306;1206;99082;-69
2023/11/27 04:03:30;;;;;;;10.20;4.10;;;;;;;-1.06;88.54;100073.91;111240;1205;113412;-68
2023/11/27 04:05:56;;;;;;;10.70;4.50;;;;;;;-1.05;88.52;100073.91;110998;1206;139249;-68
2023/11/27 04:08:21;;;;;;;12.60;5.10;;;;;;;-1.05;88.65;100073.20;111062;1209;98219;-68
2023/11/27 04:10:47;;;;;;;18.40;4.80;;;;;;;-1.12;88.47;100078.85;111018;1208;139523;-68
2023/11/27 04:13:12;;;;;;;10.30;4.60;;;;;;;-1.17;88.50;100074.48;111123;1206;98945;-67
2023/11/27 04:15:37;;;;;;;12.00;4.60;;;;;;;-1.18;88.45;100073.63;111138;1206;99711;-68
2023/11/27 04:18:03;;;;;;;8.90;4.60;;;;;;;-1.19;88.63;100072.92;110969;1205;138621;-68
2023/11/27 04:20:28;;;;;;;12.40;4.90;;;;;;;-1.21;88.48;100071.36;111230;1209;98915;-68
2023/11/27 04:22:54;;;;;;;10.90;4.90;;;;;;;-1.22;88.82;100070.84;110914;1206;140351;-68
2023/11/27 04:25:20;;;;;;;8.60;4.30;;;;;;;-1.24;88.53;100065.59;111119;1206;99380;-68
2023/11/27 04:27:45;;;;;;;10.50;4.50;;;;;;;-1.28;88.47;100062.98;111208;1206;99376;-68
2023/11/27 04:30:12;;;;;;;9.20;4.30;;;;;;;-1.31;88.47;100063.52;110994;1206;139660;-69
2023/11/27 04:32:37;;;;;;;11.80;4.40;;;;;;;-1.34;88.49;100064.06;111184;1208;98958;-68
2023/11/27 04:35:03;;;;;;;10.60;4.50;;;;;;;-1.38;88.52;100061.27;110981;1206;138938;-69
2023/11/27 04:37:28;;;;;;;11.00;4.90;;;;;;;-1.39;88.56;100060.40;111177;1206;99000;-68
2023/11/27 04:39:54;;;;;;;12.60;4.60;;;;;;;-1.39;88.67;100059.88;111112;1208;99528;-69
2023/11/27 04:42:20;;;;;;;16.10;4.80;;;;;;;-1.45;88.38;100064.28;111107;1205;139408;-68
2023/11/27 04:44:46;;;;;;;13.10;4.60;;;;;;;-1.46;88.52;100066.21;111080;1206;98927;-68
2023/11/27 04:47:11;;;;;;;11.70;5.20;;;;;;;-1.48;88.33;100065.35;111058;1206;138764;-68
2023/11/27 04:49:37;;;;;;;8.90;4.60;;;;;;;-1.45;88.62;100065.69;111211;1206;98922;-69
2023/11/27 04:52:05;;;;;;;13.20;4.70;;;;;;;-1.44;88.46;100065.68;111231;1205;106695;-69
2023/11/27 04:54:33;;;;;;;10.40;4.60;;;;;;;-1.42;88.66;100062.69;111022;1206;138713;-69
2023/11/27 04:56:58;;;;;;;15.30;5.10;;;;;;;-1.41;88.60;100068.81;111200;1205;98951;-69
2023/11/27 04:59:26;;;;;;;10.50;4.80;;;;;;;-1.38;88.74;100064.77;111091;1208;138856;-69
2023/11/27 05:01:52;;;;;;;15.20;5.30;;;;;;;-1.38;88.71;100066.53;111178;1206;98945;-68
2023/11/27 05:04:18;;;;;;;15.30;4.80;;;;;;;-1.37;88.71;100066.88;111097;1209;139851;-69
2023/11/27 05:06:44;;;;;;;14.00;4.70;;;;;;;-1.37;88.70;100065.48;111276;1206;99086;-68
2023/11/27 05:09:12;;;;;;;11.60;5.50;;;;;;;-1.36;88.67;100058.46;111240;1206;99054;-68
2023/11/27 05:11:38;;;;;;;10.70;4.70;;;;;;;-1.32;88.74;100059.32;111137;1208;138954;-69
2023/11/27 05:14:04;;;;;;;14.80;5.60;;;;;;;-1.28;88.66;100064.55;111202;1206;97894;-67
2023/11/27 05:16:29;;;;;;;12.20;5.00;;;;;;;-1.27;88.74;100067.19;111249;1206;139342;-68
2023/11/27 05:18:55;;;;;;;10.70;5.10;;;;;;;-1.29;88.52;100064.21;111170;1206;99018;-68
2023/11/27 05:21:20;;;;;;;15.80;7.30;;;;;;;-1.30;88.52;100065.62;111199;1211;99153;-68
2023/11/27 05:23:47;;;;;;;12.70;5.20;;;;;;;-1.28;88.76;100064.38;111071;1208;139297;-68
2023/11/27 05:26:13;;;;;;;11.50;5.50;;;;;;;-1.26;88.90;100063.32;111278;1206;98909;-68
2023/11/27 05:28:40;;;;;;;12.60;5.80;;;;;;;-1.24;88.86;100060.16;111176;1208;139168;-68
2023/11/27 05:31:06;;;;;;;13.80;5.90;;;;;;;-1.21;89.11;100063.64;111165;1209;107328;-68
2023/11/27 05:33:32;;;;;;;11.00;5.20;;;;;;;-1.17;88.97;100065.55;111192;1205;98919;-68
2023/11/27 05:35:57;;;;;;;18.90;6.80;;;;;;;-1.17;88.91;100073.27;111091;1205;139105;-68
2023/11/27 05:38:23;;;;;;;14.10;6.40;;;;;;;-1.16;88.91;100075.19;111217;1205;99797;-68
2023/11/27 05:40:50;;;;;;;17.10;6.40;;;;;;;-1.13;88.78;100076.23;110997;1206;139382;-68
2023/11/27 05:43:17;;;;;;;14.90;6.30;;;;;;;-1.11;88.72;100075.17;111300;1220;97800;-68
2023/11/27 05:45:43;;;;;;;18.50;6.90;;;;;;;-1.11;88.89;100072.71;111364;1208;100420;-68
2023/11/27 05:48:09;;;;;;;13.10;5.80;;;;;;;-1.11;88.90;100068.67;111126;1206;138764;-68
2023/11/27 05:50:38;;;;;;;19.40;7.60;;;;;;;-1.11;88.90;100070.26;111152;1211;99100;-68
2023/11/27 05:53:04;;;;;;;14.70;6.70;;;;;;;-1.12;88.91;100068.69;111112;1209;139483;-68
2023/11/27 05:55:29;;;;;;;18.90;7.10;;;;;;;-1.11;88.97;100065.17;111193;1206;98949;-68
2023/11/27 05:57:54;;;;;;;20.10;7.60;;;;;;;-1.10;88.84;100071.65;111254;1206;99007;-69
2023/11/27 06:00:20;;;;;;;16.10;7.40;;;;;;;-1.12;88.71;100066.75;111102;1209;139411;-68
2023/11/27 06:02:45;;;;;;;18.80;8.20;;;;;;;-1.15;88.78;100065.02;111295;1206;97807;-68
2023/11/27 06:05:10;;;;;;;21.20;8.00;;;;;;;-1.15;88.90;100069.40;110983;1209;139526;-68
2023/11/27 06:07:36;;;;;;;15.20;7.80;;;;;;;-1.16;88.95;100071.86;111310;1208;99813;-68
2023/11/27 06:10:06;;;;;;;17.60;8.20;;;;;;;-1.18;88.89;100075.73;111219;1209;98940;-67
2023/11/27 06:12:32;;;;;;;19.50;7.70;;;;;;;-1.20;88.68;100070.13;111151;1209;139075;-67
2023/11/27 06:14:58;;;;;;;16.90;7.30;;;;;;;-1.21;88.77;100070.13;111219;1206;98918;-68
2023/11/27 06:17:23;;;;;;;23.50;7.70;;;;;;;-1.24;88.79;100067.34;111171;1209;138769;-67
2023/11/27 06:19:48;;;;;;;19.20;7.10;;;;;;;-1.27;88.61;100064.02;111249;1206;99009;-67
2023/11/27 06:22:14;;;;;;;16.40;7.30;;;;;;;-1.28;88.95;100060.17;111222;1205;139429;-68
2023/11/27 06:24:40;;;;;;;18.60;7.70;;;;;;;-1.28;88.79;100057.90;111319;1208;98922;-67
2023/11/27 06:27:05;;;;;;;21.50;7.00;;;;;;;-1.28;88.93;100054.74;111122;1206;98950;-67
2023/11/27 06:29:31;;;;;;;21.60;8.00;;;;;;;-1.25;89.10;100053.86;111112;1208;138654;-67
2023/11/27 06:31:56;;;;;;;16.80;6.70;;;;;;;-1.24;89.13;100057.19;111193;1206;100436;-67
2023/11/27 06:34:21;;;;;;;26.70;6.60;;;;;;;-1.23;88.80;100059.10;111222;1205;140186;-67
2023/11/27 06:36:47;;;;;;;16.60;6.60;;;;;;;-1.22;88.79;100064.89;111135;1211;99100;-66
2023/11/27 06:39:13;;;;;;;15.70;6.50;;;;;;;-1.26;88.91;100065.59;111213;1205;98988;-67
2023/11/27 06:41:38;;;;;;;18.80;6.80;;;;;;;-1.31;88.58;100064.75;111248;1209;139199;-66
2023/11/27 06:44:05;;;;;;;18.60;7.30;;;;;;;-1.35;88.45;100063.19;111197;1206;107275;-66
2023/11/27 06:46:31;;;;;;;18.50;7.40;;;;;;;-1.39;88.62;100071.27;111189;1208;139859;-66
2023/11/27 06:48:56;;;;;;;17.30;7.40;;;;;;;-1.40;88.64;100068.64;111093;1208;99373;-70
2023/11/27 06:51:22;;;;;;;17.30;7.70;;;;;;;-1.38;88.89;100068.45;111156;1205;100300;-66
2023/11/27 06:53:47;;;;;;;19.00;9.00;;;;;;;-1.35;88.97;100065.83;110909;1205;138970;-66
2023/11/27 06:56:13;;;;;;;20.60;8.80;;;;;;;-1.32;89.06;100065.10;111269;1205;99123;-66
2023/11/27 06:58:38;;;;;;;22.10;9.00;;;;;;;-1.32;89.07;100067.73;111153;1206;139641;-66
2023/11/27 07:01:10;;;;;;;25.10;10.00;;;;;;;-1.30;88.97;100063.70;111180;1208;99032;-67
2023/11/27 07:03:36;;;;;;;19.60;9.00;;;;;;;-1.29;88.98;100059.84;111209;1208;108431;-67
2023/11/27 07:06:02;;;;;;;22.70;9.00;;;;;;;-1.30;88.66;100061.41;110963;1209;139557;-66
2023/11/27 07:08:27;;;;;;;21.40;9.40;;;;;;;-1.31;88.91;100061.42;111038;1206;99049;-66
2023/11/27 07:10:53;;;;;;;20.10;9.70;;;;;;;-1.30;88.86;100067.20;110868;1206;139196;-66
2023/11/27 07:13:18;;;;;;;25.80;10.50;;;;;;;-1.30;88.89;100071.40;111048;1211;99127;-67
2023/11/27 07:15:43;;;;;;;22.40;10.00;;;;;;;-1.28;88.99;100064.38;111161;1206;98938;-66
2023/11/27 07:18:09;;;;;;;30.90;10.90;;;;;;;-1.28;88.97;100061.59;110999;1206;138976;-66
2023/11/27 07:20:36;;;;;;;26.80;10.60;;;;;;;-1.29;88.77;100068.07;111285;1205;98930;-70
2023/11/27 07:23:01;;;;;;;29.50;11.70;;;;;;;-1.29;88.90;100067.55;111147;1206;138946;-67
2023/11/27 07:25:27;;;;;;;25.50;12.10;;;;;;;-1.31;88.84;100071.23;111226;1206;98999;-67
2023/11/27 07:27:53;;;;;;;24.20;11.10;;;;;;;-1.33;88.88;100073.00;111140;1208;99580;-68
2023/11/27 07:30:18;;;;;;;20.90;10.70;;;;;;;-1.30;88.86;100070.52;111042;1208;139878;-68
2023/11/27 07:32:45;;;;;;;24.80;10.70;;;;;;;-1.29;89.04;100071.57;111240;1206;98937;-67
2023/11/27 07:35:10;;;;;;;24.30;11.70;;;;;;;-1.30;88.86;100072.80;111206;1206;140162;-68
2023/11/27 07:37:37;;;;;;;27.60;11.40;;;;;;;-1.29;88.87;100072.10;111274;1208;99072;-68
2023/11/27 07:40:09;;;;;;;21.80;10.30;;;;;;;-1.28;88.99;100069.82;111230;1208;99015;-68
2023/11/27 07:42:34;;;;;;;24.60;10.50;;;;;;;-1.26;89.00;100073.32;110989;1210;139044;-68
2023/11/27 07:45:00;;;;;;;22.60;10.50;;;;;;;-1.24;88.96;100073.30;111048;1206;99112;-67
2023/11/27 07:47:26;;;;;;;25.60;10.70;;;;;;;-1.24;88.98;100073.13;110939;1209;139256;-68
2023/11/27 07:49:51;;;;;;;19.70;9.00;;;;;;;-1.23;88.95;100066.98;111125;1206;99146;-66
2023/11/27 07:52:16;;;;;;;23.90;9.80;;;;;;;-1.21;89.04;100064.35;110847;1211;139387;-66
2023/11/27 07:54:43;;;;;;;24.50;10.30;;;;;;;-1.20;88.94;100065.05;111176;1205;98909;-67
2023/11/27 07:57:08;;;;;;;25.30;10.80;;;;;;;-1.22;88.80;100063.65;110787;1211;99087;-70
2023/11/27 07:59:33;;;;;;;18.90;9.10;;;;;;;-1.23;88.97;100066.46;110726;1205;138814;-69
2023/11/27 08:02:00;;;;;;;23.80;10.40;;;;;;;-1.20;89.09;100062.41;110697;1211;98989;-68
2023/11/27 08:04:25;;;;;;;21.40;10.00;;;;;;;-1.16;89.22;100058.89;110738;1206;139706;-68
2023/11/27 08:06:51;;;;;;;21.20;10.10;;;;;;;-1.14;88.98;100058.70;110805;1211;99065;-66
2023/11/27 08:09:17;;;;;;;23.00;10.40;;;;;;;-1.14;88.82;100060.27;110956;1209;98925;-66
2023/11/27 08:11:42;;;;;;;26.70;12.00;;;;;;;-1.11;89.26;100059.56;111052;1211;140276;-67
2023/11/27 08:14:10;;;;;;;24.40;11.10;;;;;;;-1.10;89.13;100060.26;110869;1211;99213;-68
2023/11/27 08:16:36;;;;;;;28.10;12.30;;;;;;;-1.11;89.13;100057.45;110680;1210;138965;-69
2023/11/27 08:19:02;;;;;;;31.90;12.80;;;;;;;-1.09;89.06;100060.95;110974;1209;99115;-68
2023/11/27 08:21:27;;;;;;;29.10;12.80;;;;;;;-1.10;89.25;100059.56;110907;1206;98912;-69
2023/11/27 08:23:52;;;;;;;29.30;11.30;;;;;;;-1.12;89.04;100058.88;110835;1211;140105;-68
2023/11/27 08:26:19;;;;;;;29.80;13.20;;;;;;;-1.11;89.25;100053.42;110995;1206;99126;-68
2023/11/27 08:28:45;;;;;;;27.40;11.20;;;;;;;-1.08;89.25;100054.64;110866;1210;139920;-68
2023/11/27 08:31:11;;;;;;;25.90;10.60;;;;;;;-1.04;89.24;100052.52;110980;1208;99047;-69
2023/11/27 08:33:37;;;;;;;25.90;12.30;;;;;;;-1.04;89.11;100057.23;111051;1206;97955;-68
2023/11/27 08:36:03;;;;;;;24.30;9.50;;;;;;;-1.06;89.01;100051.11;111072;1206;140016;-67
2023/11/27 08:38:30;;;;;;;24.40;9.80;;;;;;;-1.05;89.13;100049.19;111120;1211;99070;-68
2023/11/27 08:40:56;;;;;;;30.70;12.00;;;;;;;-1.03;89.15;100047.77;110943;1208;139357;-67
2023/11/27 08:43:22;;;;;;;32.10;12.00;;;;;;;-1.03;89.09;100047.94;111155;1206;98948;-67
2023/11/27 08:45:49;;;;;;;29.90;12.20;;;;;;;-1.03;89.09;100050.58;111164;1206;107565;-67
2023/11/27 08:48:15;;;;;;;29.50;11.50;;;;;;;-1.06;88.92;100052.69;111072;1211;139570;-67
2023/11/27 08:50:41;;;;;;;29.80;12.30;;;;;;;-1.13;88.88;100052.91;111082;1206;100436;-67
2023/11/27 08:53:08;;;;;;;34.90;13.10;;;;;;;-1.20;88.77;100055.23;111009;1205;138968;-67
2023/11/27 08:55:34;;;;;;;37.50;12.90;;;;;;;-1.23;89.07;100054.55;111031;1208;107858;-67
2023/11/27 08:58:03;;;;;;;35.50;14.30;;;;;;;-1.27;88.97;100057.36;111139;1206;101259;-67
2023/11/27 09:00:34;;;;;;;34.40;13.00;;;;;;;-1.33;88.98;100052.13;111073;1208;139067;-67
2023/11/27 09:03:00;;;;;;;32.50;12.70;;;;;;;-1.31;89.01;100048.98;111119;1210;113325;-66
2023/11/27 09:05:26;;;;;;;39.10;14.20;;;;;;;-1.30;89.01;100044.77;111224;1205;139510;-66
2023/11/27 09:07:57;;;;;;;32.50;13.00;;;;;;;-1.31;89.15;100045.29;111163;1209;99170;-65
2023/11/27 09:10:24;;;;;;;39.80;15.00;;;;;;;-1.29;89.11;100043.36;111078;1208;139307;-66
2023/11/27 09:12:50;;;;;;;40.20;15.60;;;;;;;-1.29;89.06;100043.00;111073;1206;98944;-65
2023/11/27 09:15:17;;;;;;;38.30;14.50;;;;;;;-1.28;89.10;100044.40;111370;1209;99037;-66
2023/11/27 09:17:43;;;;;;;40.80;15.70;;;;;;;-1.25;89.12;100045.61;111141;1208;140692;-66
2023/11/27 09:20:10;;;;;;;42.80;15.60;;;;;;;-1.20;89.24;100047.16;111195;1209;99182;-66
2023/11/27 09:22:42;;;;;;;40.60;16.00;;;;;;;-1.19;89.06;100048.20;111108;1206;139022;-67
2023/11/27 09:25:09;;;;;;;40.80;15.40;;;;;;;-1.22;89.11;100045.24;111315;1208;102578;-66
2023/11/27 09:27:38;;;;;;;35.70;14.80;;;;;;;-1.20;89.13;100052.41;111277;1208;98172;-66
2023/11/27 09:30:09;;;;;;;41.90;16.20;;;;;;;-1.17;89.37;100051.36;111115;1209;139390;-66
2023/11/27 09:32:35;;;;;;;47.50;17.50;;;;;;;-1.12;89.29;100050.98;111210;1206;97790;-66
2023/11/27 09:35:04;;;;;;;42.10;17.00;;;;;;;-1.12;89.36;100042.38;110994;1208;140486;-66
2023/11/27 09:37:29;;;;;;;44.00;16.10;;;;;;;-1.04;89.49;100036.90;111234;1208;99968;-67
2023/11/27 09:39:55;;;;;;;43.20;16.30;;;;;;;-1.00;89.12;100034.08;111052;1205;99638;-68
2023/11/27 09:42:24;;;;;;;39.10;16.40;;;;;;;-0.98;89.24;100031.08;111077;1206;139394;-66
2023/11/27 09:44:50;;;;;;;42.40;15.60;;;;;;;-0.96;89.37;100029.31;111314;1208;113221;-67
2023/11/27 09:47:16;;;;;;;43.20;17.90;;;;;;;-0.92;89.49;100025.96;111049;1212;139158;-67
2023/11/27 09:49:47;;;;;;;47.20;17.70;;;;;;;-0.90;89.50;100023.13;111207;1208;99096;-67
2023/11/27 09:52:15;;;;;;;;;;;;;;;-0.89;89.46;100017.34;111198;1211;99047;-67
2023/11/27 09:54:44;;;;;;;41.60;15.60;;;;;;;-0.90;89.29;100014.20;111282;1206;112920;-67
2023/11/27 09:57:11;;;;;;;44.10;15.80;;;;;;;-0.90;89.46;100007.70;111176;1209;99631;-69
2023/11/27 09:59:40;;;;;;;43.50;17.70;;;;;;;-0.92;89.33;99996.49;111107;1207;139592;-66
2023/11/27 10:02:10;;;;;;;50.50;18.20;;;;;;;-0.93;89.39;99997.38;111050;1221;99101;-66
2023/11/27 10:04:36;;;;;;;52.20;18.10;;;;;;;-0.93;89.41;99992.11;111103;1207;139150;-67
2023/11/27 10:07:06;;;;;;;47.90;17.30;;;;;;;-0.95;89.25;99990.55;111163;1208;99034;-67
2023/11/27 10:09:34;;;;;;;43.30;16.50;;;;;;;-0.90;89.65;99993.14;111159;1206;100995;-67
2023/11/27 10:12:01;;;;;;;49.40;16.20;;;;;;;-0.89;89.49;99989.45;110971;1206;139508;-67
2023/11/27 10:14:29;;;;;;;48.70;17.20;;;;;;;-0.95;89.40;99986.69;113350;1206;97016;-69
2023/11/27 10:16:59;;;;;;;37.50;15.70;;;;;;;-1.02;89.01;99982.02;111199;1208;139937;-67
2023/11/27 10:19:27;;;;;;;44.00;16.60;;;;;;;-1.07;89.20;99977.83;111150;1208;113209;-67
2023/11/27 10:21:57;;;;;;;42.10;16.60;;;;;;;-1.09;89.13;99978.90;111251;1209;99221;-67
2023/11/27 10:24:23;;;;;;;38.20;15.60;;;;;;;-1.10;89.26;99980.84;111024;1208;138710;-67
2023/11/27 10:26:48;;;;;;;45.70;17.80;;;;;;;-1.10;89.33;99975.58;111129;1208;99071;-67
2023/11/27 10:29:25;;;;;;;48.90;17.60;;;;;;;-1.09;89.51;99970.14;111094;1206;139891;-67
2023/11/27 10:32:00;;;;;;;45.30;16.90;;;;;;;-1.08;89.55;99967.85;111246;1209;99060;-67
2023/11/27 10:34:31;;;;;;;46.20;17.10;;;;;;;-1.08;89.47;99964.34;111033;1208;140254;-67
2023/11/27 10:36:57;;;;;;;40.10;16.20;;;;;;;-1.08;89.50;99962.77;111187;1208;98946;-67
2023/11/27 10:39:25;;;;;;;49.90;20.00;;;;;;;-1.04;89.42;99961.52;111191;1209;98989;-68
2023/11/27 10:41:55;;;;;;;50.80;20.40;;;;;;;-1.01;89.59;99960.26;110563;1206;139925;-68
2023/11/27 10:44:25;;;;;;;50.50;21.20;;;;;;;-1.00;89.46;99957.61;110965;1208;99539;-67
2023/11/27 10:46:53;;;;;;;47.00;18.10;;;;;;;-1.02;89.27;99957.46;110974;1209;139182;-67
2023/11/27 10:49:20;;;;;;;47.10;17.10;;;;;;;-1.04;89.30;99948.88;111204;1208;99040;-67
2023/11/27 10:51:47;;;;;;;43.10;17.90;;;;;;;-1.03;89.46;99947.12;111049;1218;99048;-67
2023/11/27 10:54:14;;;;;;;59.00;24.70;;;;;;;-1.00;89.61;99944.64;110953;1208;138765;-66
2023/11/27 10:56:45;;;;;;;67.70;27.90;;;;;;;-0.99;89.34;99946.91;111026;1211;99044;-67
2023/11/27 10:59:13;;;;;;;52.00;22.50;;;;;;;-0.97;89.39;99946.39;111025;1208;138657;-67
2023/11/27 11:01:42;;;;;;;55.40;21.60;;;;;;;-0.96;89.68;99949.35;111135;1219;99099;-67